sensor_id;sensor_type;location;lat;lon;timestamp;pressure;altitude;pressure_sealevel;temperature;humidity
18697;BME280;22617;43.690;27.956;2023-04-08T00:04:37;99293.22;;;6.16;83.81
18697;BME280;22617;43.690;27.956;2023-04-08T00:09:42;99294.13;;;6.20;84.12
18697;BME280;22617;43.690;27.956;2023-04-08T00:14:45;99294.16;;;6.21;83.90
18697;BME280;22617;43.690;27.956;2023-04-08T00:19:49;99284.69;;;6.22;83.59
18697;BME280;22617;43.690;27.956;2023-04-08T00:24:54;99295.66;;;6.08;83.31
18697;BME280;22617;43.690;27.956;2023-04-08T00:29:57;99299.72;;;5.96;83.86
18697;BME280;22617;43.690;27.956;2023-04-08T00:35:01;99295.59;;;6.05;84.34
18697;BME280;22617;43.690;27.956;2023-04-08T00:40:07;99296.38;;;6.01;83.86
18697;BME280;22617;43.690;27.956;2023-04-08T00:45:12;99301.50;;;5.98;84.15
18697;BME280;22617;43.690;27.956;2023-04-08T00:50:16;99301.50;;;5.98;84.20
18697;BME280;22617;43.690;27.956;2023-04-08T00:55:21;99290.16;;;5.92;83.80
18697;BME280;22617;43.690;27.956;2023-04-08T01:00:25;99287.41;;;5.86;84.05
18697;BME280;22617;43.690;27.956;2023-04-08T01:05:34;99289.28;;;5.91;84.16
18697;BME280;22617;43.690;27.956;2023-04-08T01:10:41;99291.16;;;5.98;83.77
18697;BME280;22617;43.690;27.956;2023-04-08T01:15:47;99287.78;;;6.02;83.87
18697;BME280;22617;43.690;27.956;2023-04-08T01:20:52;99298.94;;;6.00;83.46
18697;BME280;22617;43.690;27.956;2023-04-08T01:25:58;99301.50;;;6.00;83.20
18697;BME280;22617;43.690;27.956;2023-04-08T01:31:02;99294.63;;;5.99;83.18
18697;BME280;22617;43.690;27.956;2023-04-08T01:36:06;99285.91;;;5.95;83.52
18697;BME280;22617;43.690;27.956;2023-04-08T01:41:13;99287.66;;;5.96;83.17
18697;BME280;22617;43.690;27.956;2023-04-08T01:46:19;99286.66;;;5.88;83.04
18697;BME280;22617;43.690;27.956;2023-04-08T01:51:23;99287.53;;;5.90;83.44
18697;BME280;22617;43.690;27.956;2023-04-08T01:56:31;99287.63;;;5.93;83.17
18697;BME280;22617;43.690;27.956;2023-04-08T02:01:38;99276.34;;;5.90;82.56
18697;BME280;22617;43.690;27.956;2023-04-08T02:06:42;99272.78;;;5.86;83.06
18697;BME280;22617;43.690;27.956;2023-04-08T02:11:47;99267.47;;;5.79;82.87
18697;BME280;22617;43.690;27.956;2023-04-08T02:16:52;99264.72;;;5.69;82.96
18697;BME280;22617;43.690;27.956;2023-04-08T02:22:03;99271.31;;;5.55;82.85
18697;BME280;22617;43.690;27.956;2023-04-08T02:27:10;99279.16;;;5.60;83.51
18697;BME280;22617;43.690;27.956;2023-04-08T02:32:14;99280.09;;;5.63;83.17
18697;BME280;22617;43.690;27.956;2023-04-08T02:37:19;99280.13;;;5.66;83.02
18697;BME280;22617;43.690;27.956;2023-04-08T02:42:24;99274.22;;;5.70;82.76
18697;BME280;22617;43.690;27.956;2023-04-08T02:47:28;99277.72;;;5.74;83.05
18697;BME280;22617;43.690;27.956;2023-04-08T02:52:32;99277.50;;;5.63;82.79
18697;BME280;22617;43.690;27.956;2023-04-08T02:57:38;99268.09;;;5.65;82.69
18697;BME280;22617;43.690;27.956;2023-04-08T03:02:42;99280.03;;;5.60;82.31
18697;BME280;22617;43.690;27.956;2023-04-08T03:07:45;99287.50;;;5.47;82.61
18697;BME280;22617;43.690;27.956;2023-04-08T03:12:50;99291.81;;;5.48;82.35
18697;BME280;22617;43.690;27.956;2023-04-08T03:17:54;99283.19;;;5.46;81.96
18697;BME280;22617;43.690;27.956;2023-04-08T03:22:58;99295.19;;;5.44;81.63
18697;BME280;22617;43.690;27.956;2023-04-08T03:28:03;99301.78;;;5.30;80.61
18697;BME280;22617;43.690;27.956;2023-04-08T03:33:06;99311.97;;;5.23;79.83
18697;BME280;22617;43.690;27.956;2023-04-08T03:38:10;99316.06;;;5.12;79.97
18697;BME280;22617;43.690;27.956;2023-04-08T03:43:15;99319.50;;;5.13;80.07
18697;BME280;22617;43.690;27.956;2023-04-08T03:48:20;99317.78;;;5.13;80.26
18697;BME280;22617;43.690;27.956;2023-04-08T03:53:23;99329.66;;;5.05;79.96
18697;BME280;22617;43.690;27.956;2023-04-08T03:58:30;99336.16;;;4.88;80.00
18697;BME280;22617;43.690;27.956;2023-04-08T04:03:34;99345.00;;;4.99;80.48
18697;BME280;22617;43.690;27.956;2023-04-08T04:08:37;99350.41;;;5.08;80.58
18697;BME280;22617;43.690;27.956;2023-04-08T04:13:42;99346.19;;;5.13;80.19
18697;BME280;22617;43.690;27.956;2023-04-08T04:18:46;99348.81;;;5.15;80.75
18697;BME280;22617;43.690;27.956;2023-04-08T04:23:50;99355.00;;;5.21;80.23
18697;BME280;22617;43.690;27.956;2023-04-08T04:28:55;99353.22;;;5.19;80.17
18697;BME280;22617;43.690;27.956;2023-04-08T04:33:58;99353.72;;;5.04;80.38
18697;BME280;22617;43.690;27.956;2023-04-08T04:39:02;99346.19;;;5.13;80.33
18697;BME280;22617;43.690;27.956;2023-04-08T04:44:07;99348.69;;;5.48;80.84
18697;BME280;22617;43.690;27.956;2023-04-08T04:49:10;99343.44;;;5.85;80.33
18697;BME280;22617;43.690;27.956;2023-04-08T04:54:14;99351.59;;;6.02;79.96
18697;BME280;22617;43.690;27.956;2023-04-08T04:59:19;99346.53;;;6.09;79.44
18697;BME280;22617;43.690;27.956;2023-04-08T05:04:23;99369.25;;;6.23;79.52
18697;BME280;22617;43.690;27.956;2023-04-08T05:09:28;99369.41;;;6.32;80.68
18697;BME280;22617;43.690;27.956;2023-04-08T05:14:33;99371.63;;;6.58;80.34
18697;BME280;22617;43.690;27.956;2023-04-08T05:19:36;99371.84;;;6.72;79.71
18697;BME280;22617;43.690;27.956;2023-04-08T05:24:40;99370.50;;;6.95;78.78
18697;BME280;22617;43.690;27.956;2023-04-08T05:29:44;99375.06;;;7.10;78.13
18697;BME280;22617;43.690;27.956;2023-04-08T05:34:48;99375.50;;;7.39;76.76
18697;BME280;22617;43.690;27.956;2023-04-08T05:39:51;99384.50;;;7.61;75.89
18697;BME280;22617;43.690;27.956;2023-04-08T05:44:56;99377.88;;;7.84;73.80
18697;BME280;22617;43.690;27.956;2023-04-08T05:50:00;99380.66;;;7.99;73.14
18697;BME280;22617;43.690;27.956;2023-04-08T05:55:05;99381.72;;;8.16;72.33
18697;BME280;22617;43.690;27.956;2023-04-08T06:00:10;99382.69;;;8.23;72.79
18697;BME280;22617;43.690;27.956;2023-04-08T06:05:14;99381.16;;;8.40;72.77
18697;BME280;22617;43.690;27.956;2023-04-08T06:10:17;99378.72;;;8.52;71.91
18697;BME280;22617;43.690;27.956;2023-04-08T06:15:23;99378.88;;;8.67;71.00
18697;BME280;22617;43.690;27.956;2023-04-08T06:20:26;99377.50;;;9.09;66.13
18697;BME280;22617;43.690;27.956;2023-04-08T06:25:30;99382.19;;;9.61;67.35
18697;BME280;22617;43.690;27.956;2023-04-08T06:30:35;99383.97;;;9.72;63.30
18697;BME280;22617;43.690;27.956;2023-04-08T06:35:39;99378.75;;;9.67;62.50
18697;BME280;22617;43.690;27.956;2023-04-08T06:40:42;99380.66;;;9.97;62.43
18697;BME280;22617;43.690;27.956;2023-04-08T06:45:48;99391.25;;;10.35;61.72
18697;BME280;22617;43.690;27.956;2023-04-08T06:50:54;99381.75;;;10.54;61.01
18697;BME280;22617;43.690;27.956;2023-04-08T06:55:57;99378.31;;;10.82;60.08
18697;BME280;22617;43.690;27.956;2023-04-08T07:01:03;99372.25;;;11.07;59.45
18697;BME280;22617;43.690;27.956;2023-04-08T07:06:07;99374.84;;;11.10;59.58
18697;BME280;22617;43.690;27.956;2023-04-08T07:11:10;99382.66;;;11.12;61.37
18697;BME280;22617;43.690;27.956;2023-04-08T07:16:15;99378.19;;;11.94;59.81
18697;BME280;22617;43.690;27.956;2023-04-08T07:21:19;99379.88;;;12.10;58.47
18697;BME280;22617;43.690;27.956;2023-04-08T07:26:22;99389.31;;;12.39;60.64
18697;BME280;22617;43.690;27.956;2023-04-08T07:31:27;99385.66;;;12.67;60.07
18697;BME280;22617;43.690;27.956;2023-04-08T07:36:31;99378.44;;;13.02;57.76
18697;BME280;22617;43.690;27.956;2023-04-08T07:41:35;99379.44;;;12.89;58.77
18697;BME280;22617;43.690;27.956;2023-04-08T07:46:39;99379.47;;;12.82;57.08
18697;BME280;22617;43.690;27.956;2023-04-08T07:51:43;99382.97;;;12.85;56.72
18697;BME280;22617;43.690;27.956;2023-04-08T07:56:46;99377.78;;;12.73;56.49
18697;BME280;22617;43.690;27.956;2023-04-08T08:01:51;99380.38;;;12.78;57.29
18697;BME280;22617;43.690;27.956;2023-04-08T08:06:55;99381.31;;;12.71;58.96
18697;BME280;22617;43.690;27.956;2023-04-08T08:11:58;99386.63;;;12.54;56.97
18697;BME280;22617;43.690;27.956;2023-04-08T08:17:04;99381.31;;;12.69;57.40
18697;BME280;22617;43.690;27.956;2023-04-08T08:22:07;99383.72;;;12.96;58.11
18697;BME280;22617;43.690;27.956;2023-04-08T08:27:10;99375.91;;;12.93;57.28
18697;BME280;22617;43.690;27.956;2023-04-08T08:32:15;99372.78;;;13.57;55.01
18697;BME280;22617;43.690;27.956;2023-04-08T08:37:19;99376.63;;;14.04;54.92
18697;BME280;22617;43.690;27.956;2023-04-08T08:42:24;99362.84;;;14.55;54.83
18697;BME280;22617;43.690;27.956;2023-04-08T08:47:30;99371.38;;;14.04;54.49
18697;BME280;22617;43.690;27.956;2023-04-08T08:52:33;99374.31;;;13.76;56.07
18697;BME280;22617;43.690;27.956;2023-04-08T08:57:37;99379.94;;;13.35;55.58
18697;BME280;22617;43.690;27.956;2023-04-08T09:02:43;99380.81;;;13.36;55.61
18697;BME280;22617;43.690;27.956;2023-04-08T09:07:46;99375.66;;;13.24;56.42
18697;BME280;22617;43.690;27.956;2023-04-08T09:12:54;99388.59;;;13.43;55.72
18697;BME280;22617;43.690;27.956;2023-04-08T09:17:59;99389.66;;;13.23;55.68
18697;BME280;22617;43.690;27.956;2023-04-08T09:23:03;99389.56;;;13.35;55.31
18697;BME280;22617;43.690;27.956;2023-04-08T09:28:17;99401.94;;;13.18;57.83
18697;BME280;22617;43.690;27.956;2023-04-08T09:33:30;99403.81;;;12.91;56.27
18697;BME280;22617;43.690;27.956;2023-04-08T09:38:34;99417.09;;;12.62;58.28
18697;BME280;22617;43.690;27.956;2023-04-08T09:43:41;99419.72;;;12.58;58.00
18697;BME280;22617;43.690;27.956;2023-04-08T09:48:57;99403.91;;;12.76;57.32
18697;BME280;22617;43.690;27.956;2023-04-08T09:54:11;99397.41;;;13.33;57.36
18697;BME280;22617;43.690;27.956;2023-04-08T09:59:16;99406.00;;;13.49;57.15
18697;BME280;22617;43.690;27.956;2023-04-08T10:04:25;99397.16;;;14.40;55.79
18697;BME280;22617;43.690;27.956;2023-04-08T10:09:31;99397.16;;;14.40;55.38
18697;BME280;22617;43.690;27.956;2023-04-08T10:14:34;99392.25;;;14.78;55.54
18697;BME280;22617;43.690;27.956;2023-04-08T10:19:39;99395.19;;;15.15;53.05
18697;BME280;22617;43.690;27.956;2023-04-08T10:30:39;99393.91;;;14.82;53.30
18697;BME280;22617;43.690;27.956;2023-04-08T10:35:47;99386.50;;;14.52;54.56
18697;BME280;22617;43.690;27.956;2023-04-08T10:40:51;99394.69;;;14.25;56.27
18697;BME280;22617;43.690;27.956;2023-04-08T10:45:56;99383.38;;;14.20;56.51
18697;BME280;22617;43.690;27.956;2023-04-08T10:51:01;99393.03;;;14.18;55.23
18697;BME280;22617;43.690;27.956;2023-04-08T10:56:07;99382.84;;;13.95;57.88
18697;BME280;22617;43.690;27.956;2023-04-08T11:01:14;99382.63;;;14.10;55.74
18697;BME280;22617;43.690;27.956;2023-04-08T11:06:19;99390.81;;;13.84;56.44
18697;BME280;22617;43.690;27.956;2023-04-08T11:11:23;99374.94;;;13.96;56.39
18697;BME280;22617;43.690;27.956;2023-04-08T11:16:30;99375.03;;;13.87;57.16
18697;BME280;22617;43.690;27.956;2023-04-08T11:21:36;99380.31;;;13.84;57.00
18697;BME280;22617;43.690;27.956;2023-04-08T11:26:40;99382.72;;;13.17;56.67
18697;BME280;22617;43.690;27.956;2023-04-08T11:31:44;99373.06;;;13.25;57.02
18697;BME280;22617;43.690;27.956;2023-04-08T11:36:49;99375.28;;;13.66;55.99
18697;BME280;22617;43.690;27.956;2023-04-08T11:41:53;99364.13;;;14.24;55.63
18697;BME280;22617;43.690;27.956;2023-04-08T11:46:56;99353.03;;;14.02;54.72
18697;BME280;22617;43.690;27.956;2023-04-08T11:52:01;99356.13;;;14.36;54.78
18697;BME280;22617;43.690;27.956;2023-04-08T11:57:05;99346.16;;;14.59;55.56
18697;BME280;22617;43.690;27.956;2023-04-08T12:02:08;99339.53;;;14.31;55.54
18697;BME280;22617;43.690;27.956;2023-04-08T12:07:13;99339.06;;;14.67;52.48
18697;BME280;22617;43.690;27.956;2023-04-08T12:12:18;99346.00;;;14.06;53.83
18697;BME280;22617;43.690;27.956;2023-04-08T12:17:22;99340.97;;;13.90;55.03
18697;BME280;22617;43.690;27.956;2023-04-08T12:22:27;99338.94;;;14.11;54.40
18697;BME280;22617;43.690;27.956;2023-04-08T12:27:31;99338.06;;;14.12;55.80
18697;BME280;22617;43.690;27.956;2023-04-08T12:32:35;99334.06;;;14.49;54.20
18697;BME280;22617;43.690;27.956;2023-04-08T12:37:40;99331.00;;;14.79;54.44
18697;BME280;22617;43.690;27.956;2023-04-08T12:42:43;99325.56;;;14.32;55.36
18697;BME280;22617;43.690;27.956;2023-04-08T12:47:47;99328.06;;;13.72;56.16
18697;BME280;22617;43.690;27.956;2023-04-08T12:52:52;99324.50;;;13.79;55.54
18697;BME280;22617;43.690;27.956;2023-04-08T12:57:55;99317.72;;;13.60;56.37
18697;BME280;22617;43.690;27.956;2023-04-08T13:02:59;99305.66;;;13.47;55.80
18697;BME280;22617;43.690;27.956;2023-04-08T13:08:04;99311.31;;;13.85;54.66
18697;BME280;22617;43.690;27.956;2023-04-08T13:13:08;99302.75;;;13.71;55.04
18697;BME280;22617;43.690;27.956;2023-04-08T13:18:11;99302.59;;;13.83;56.99
18697;BME280;22617;43.690;27.956;2023-04-08T13:23:16;99305.47;;;13.62;55.21
18697;BME280;22617;43.690;27.956;2023-04-08T13:28:20;99297.53;;;13.68;57.12
18697;BME280;22617;43.690;27.956;2023-04-08T13:33:23;99295.94;;;13.57;56.18
18697;BME280;22617;43.690;27.956;2023-04-08T13:38:28;99291.63;;;13.51;57.36
18697;BME280;22617;43.690;27.956;2023-04-08T13:43:32;99290.72;;;13.57;55.96
18697;BME280;22617;43.690;27.956;2023-04-08T13:48:36;99291.69;;;13.45;56.84
18697;BME280;22617;43.690;27.956;2023-04-08T13:53:41;99290.94;;;13.34;57.10
18697;BME280;22617;43.690;27.956;2023-04-08T13:58:45;99295.41;;;13.26;56.55
18697;BME280;22617;43.690;27.956;2023-04-08T14:03:57;99294.69;;;13.05;57.16
18697;BME280;22617;43.690;27.956;2023-04-08T14:09:02;99297.47;;;12.89;57.14
18697;BME280;22617;43.690;27.956;2023-04-08T14:14:06;99288.81;;;12.76;57.01
18697;BME280;22617;43.690;27.956;2023-04-08T14:19:10;99296.75;;;12.67;57.83
18697;BME280;22617;43.690;27.956;2023-04-08T14:24:15;99304.75;;;12.46;58.51
18697;BME280;22617;43.690;27.956;2023-04-08T14:29:18;99296.03;;;12.51;57.50
18697;BME280;22617;43.690;27.956;2023-04-08T14:34:22;99297.81;;;12.39;58.16
18697;BME280;22617;43.690;27.956;2023-04-08T14:39:27;99295.22;;;12.40;57.90
18697;BME280;22617;43.690;27.956;2023-04-08T14:44:31;99295.34;;;12.22;59.09
18697;BME280;22617;43.690;27.956;2023-04-08T14:49:34;99293.59;;;12.22;58.68
18697;BME280;22617;43.690;27.956;2023-04-08T14:54:39;99291.00;;;12.13;59.08
18697;BME280;22617;43.690;27.956;2023-04-08T14:59:45;99294.56;;;12.03;59.07
18697;BME280;22617;43.690;27.956;2023-04-08T15:04:48;99286.81;;;11.85;59.57
18697;BME280;22617;43.690;27.956;2023-04-08T15:09:53;99295.56;;;11.73;59.70
18697;BME280;22617;43.690;27.956;2023-04-08T15:14:57;99294.66;;;11.71;59.33
18697;BME280;22617;43.690;27.956;2023-04-08T15:20:00;99296.47;;;11.54;60.43
18697;BME280;22617;43.690;27.956;2023-04-08T15:25:06;99299.97;;;11.47;60.30
18697;BME280;22617;43.690;27.956;2023-04-08T15:30:11;99293.03;;;11.32;60.73
18697;BME280;22617;43.690;27.956;2023-04-08T15:35:14;99312.25;;;11.12;61.00
18697;BME280;22617;43.690;27.956;2023-04-08T15:40:20;99297.47;;;11.02;61.89
18697;BME280;22617;43.690;27.956;2023-04-08T15:45:24;99307.88;;;10.94;62.09
18697;BME280;22617;43.690;27.956;2023-04-08T15:50:28;99307.91;;;10.82;62.63
18697;BME280;22617;43.690;27.956;2023-04-08T15:55:37;99305.31;;;10.73;63.74
18697;BME280;22617;43.690;27.956;2023-04-08T16:00:41;99307.88;;;10.56;64.49
18697;BME280;22617;43.690;27.956;2023-04-08T16:05:45;99313.94;;;10.50;64.32
18697;BME280;22617;43.690;27.956;2023-04-08T16:10:50;99310.44;;;10.24;66.06
18697;BME280;22617;43.690;27.956;2023-04-08T16:15:53;99312.16;;;10.18;65.44
18697;BME280;22617;43.690;27.956;2023-04-08T16:20:58;99312.09;;;10.01;66.12
18697;BME280;22617;43.690;27.956;2023-04-08T16:26:03;99308.59;;;9.96;65.94
18697;BME280;22617;43.690;27.956;2023-04-08T16:31:06;99310.28;;;9.82;67.03
18697;BME280;22617;43.690;27.956;2023-04-08T16:36:10;99312.84;;;9.71;67.39
18697;BME280;22617;43.690;27.956;2023-04-08T16:41:15;99316.28;;;9.66;67.14
18697;BME280;22617;43.690;27.956;2023-04-08T16:46:19;99324.84;;;9.43;68.21
18697;BME280;22617;43.690;27.956;2023-04-08T16:51:23;99319.56;;;9.30;68.30
18697;BME280;22617;43.690;27.956;2023-04-08T16:56:28;99333.41;;;9.24;68.56
18697;BME280;22617;43.690;27.956;2023-04-08T17:01:31;99340.16;;;9.01;69.13
18697;BME280;22617;43.690;27.956;2023-04-08T17:06:35;99343.50;;;8.88;70.38
18697;BME280;22617;43.690;27.956;2023-04-08T17:11:40;99346.09;;;8.82;71.23
18697;BME280;22617;43.690;27.956;2023-04-08T17:16:43;99352.97;;;8.77;71.17
18697;BME280;22617;43.690;27.956;2023-04-08T17:21:48;99351.28;;;8.82;71.18
18697;BME280;22617;43.690;27.956;2023-04-08T17:26:54;99361.47;;;8.63;71.61
18697;BME280;22617;43.690;27.956;2023-04-08T17:31:58;99370.06;;;8.53;71.95
18697;BME280;22617;43.690;27.956;2023-04-08T17:37:02;99381.97;;;8.35;72.54
18697;BME280;22617;43.690;27.956;2023-04-08T17:42:07;99393.28;;;8.40;72.93
18697;BME280;22617;43.690;27.956;2023-04-08T17:47:11;99403.59;;;8.32;72.99
18697;BME280;22617;43.690;27.956;2023-04-08T17:52:15;99406.16;;;8.30;73.07
18697;BME280;22617;43.690;27.956;2023-04-08T17:57:19;99412.06;;;8.19;73.08
18697;BME280;22617;43.690;27.956;2023-04-08T18:02:23;99413.63;;;8.06;73.30
18697;BME280;22617;43.690;27.956;2023-04-08T18:07:28;99419.66;;;8.04;73.18
18697;BME280;22617;43.690;27.956;2023-04-08T18:12:33;99422.09;;;7.90;73.69
18697;BME280;22617;43.690;27.956;2023-04-08T18:17:42;99426.50;;;7.96;73.48
18697;BME280;22617;43.690;27.956;2023-04-08T18:22:45;99435.16;;;7.98;74.05
18697;BME280;22617;43.690;27.956;2023-04-08T18:27:51;99443.00;;;8.01;73.81
18697;BME280;22617;43.690;27.956;2023-04-08T18:32:54;99446.97;;;7.77;74.89
18697;BME280;22617;43.690;27.956;2023-04-08T18:37:59;99439.28;;;7.83;75.42
18697;BME280;22617;43.690;27.956;2023-04-08T18:43:04;99441.84;;;7.80;75.12
18697;BME280;22617;43.690;27.956;2023-04-08T18:48:08;99444.28;;;7.70;75.90
18697;BME280;22617;43.690;27.956;2023-04-08T18:53:13;99437.31;;;7.66;76.79
18697;BME280;22617;43.690;27.956;2023-04-08T18:58:18;99434.69;;;7.64;76.82
18697;BME280;22617;43.690;27.956;2023-04-08T19:03:22;99436.50;;;7.70;76.54
18697;BME280;22617;43.690;27.956;2023-04-08T19:08:28;99437.22;;;7.60;76.25
18697;BME280;22617;43.690;27.956;2023-04-08T19:13:35;99442.28;;;7.52;76.79
18697;BME280;22617;43.690;27.956;2023-04-08T19:18:38;99441.44;;;7.55;77.32
18697;BME280;22617;43.690;27.956;2023-04-08T19:23:42;99438.06;;;7.59;76.75
18697;BME280;22617;43.690;27.956;2023-04-08T19:28:48;99433.56;;;7.49;76.07
18697;BME280;22617;43.690;27.956;2023-04-08T19:33:52;99427.06;;;7.18;76.29
18697;BME280;22617;43.690;27.956;2023-04-08T19:38:55;99428.31;;;6.91;76.96
18697;BME280;22617;43.690;27.956;2023-04-08T19:44:00;99423.94;;;6.87;77.80
18697;BME280;22617;43.690;27.956;2023-04-08T19:49:04;99416.16;;;6.87;77.95
18697;BME280;22617;43.690;27.956;2023-04-08T19:54:07;99424.88;;;6.92;77.33
18697;BME280;22617;43.690;27.956;2023-04-08T19:59:12;99417.97;;;6.91;77.84
18697;BME280;22617;43.690;27.956;2023-04-08T20:04:16;99416.13;;;6.84;77.42
18697;BME280;22617;43.690;27.956;2023-04-08T20:09:19;99415.88;;;6.71;77.84
18697;BME280;22617;43.690;27.956;2023-04-08T20:14:25;99416.56;;;6.61;78.34
18697;BME280;22617;43.690;27.956;2023-04-08T20:19:29;99424.16;;;6.53;79.82
18697;BME280;22617;43.690;27.956;2023-04-08T20:24:32;99433.94;;;6.68;80.41
18697;BME280;22617;43.690;27.956;2023-04-08T20:29:38;99435.59;;;6.64;82.16
18697;BME280;22617;43.690;27.956;2023-04-08T20:34:43;99431.38;;;6.69;82.80
18697;BME280;22617;43.690;27.956;2023-04-08T20:39:46;99432.91;;;6.58;82.21
18697;BME280;22617;43.690;27.956;2023-04-08T20:44:51;99432.88;;;6.56;81.97
18697;BME280;22617;43.690;27.956;2023-04-08T20:49:55;99439.03;;;6.62;82.13
18697;BME280;22617;43.690;27.956;2023-04-08T20:54:58;99432.06;;;6.59;81.38
18697;BME280;22617;43.690;27.956;2023-04-08T21:00:06;99431.00;;;6.49;81.20
18697;BME280;22617;43.690;27.956;2023-04-08T21:05:10;99433.59;;;6.49;81.05
18697;BME280;22617;43.690;27.956;2023-04-08T21:10:14;99436.41;;;6.60;81.09
18697;BME280;22617;43.690;27.956;2023-04-08T21:15:19;99438.81;;;6.51;80.10
18697;BME280;22617;43.690;27.956;2023-04-08T21:20:23;99436.25;;;6.52;80.67
18697;BME280;22617;43.690;27.956;2023-04-08T21:25:26;99439.56;;;6.45;80.32
18697;BME280;22617;43.690;27.956;2023-04-08T21:30:31;99438.44;;;6.31;80.54
18697;BME280;22617;43.690;27.956;2023-04-08T21:35:35;99433.38;;;6.37;80.74
18697;BME280;22617;43.690;27.956;2023-04-08T21:40:38;99423.13;;;6.42;81.05
18697;BME280;22617;43.690;27.956;2023-04-08T21:45:44;99424.09;;;6.48;80.81
18697;BME280;22617;43.690;27.956;2023-04-08T21:50:48;99431.06;;;6.51;80.77
18697;BME280;22617;43.690;27.956;2023-04-08T21:55:51;99442.22;;;6.48;80.79
18697;BME280;22617;43.690;27.956;2023-04-08T22:00:57;99443.03;;;6.46;80.64
18697;BME280;22617;43.690;27.956;2023-04-08T22:06:00;99452.38;;;6.39;80.73
18697;BME280;22617;43.690;27.956;2023-04-08T22:11:05;99443.75;;;6.39;80.34
18697;BME280;22617;43.690;27.956;2023-04-08T22:16:11;99447.94;;;6.32;80.47
18697;BME280;22617;43.690;27.956;2023-04-08T22:21:14;99451.19;;;6.24;80.69
18697;BME280;22617;43.690;27.956;2023-04-08T22:26:17;99450.25;;;6.19;81.02
18697;BME280;22617;43.690;27.956;2023-04-08T22:31:23;99436.91;;;6.00;80.15
18697;BME280;22617;43.690;27.956;2023-04-08T22:36:27;99448.13;;;5.99;80.40
18697;BME280;22617;43.690;27.956;2023-04-08T22:41:31;99439.09;;;5.82;79.98
18697;BME280;22617;43.690;27.956;2023-04-08T22:46:35;99441.47;;;5.73;80.03
18697;BME280;22617;43.690;27.956;2023-04-08T22:51:39;99441.06;;;5.55;80.40
18697;BME280;22617;43.690;27.956;2023-04-08T22:56:43;99440.34;;;5.60;80.33
18697;BME280;22617;43.690;27.956;2023-04-08T23:01:48;99442.00;;;5.58;80.19
18697;BME280;22617;43.690;27.956;2023-04-08T23:06:52;99439.88;;;5.41;79.26
18697;BME280;22617;43.690;27.956;2023-04-08T23:11:56;99439.09;;;5.09;78.17
18697;BME280;22617;43.690;27.956;2023-04-08T23:17:00;99434.91;;;4.79;79.32
18697;BME280;22617;43.690;27.956;2023-04-08T23:22:06;99430.00;;;4.89;79.48
18697;BME280;22617;43.690;27.956;2023-04-08T23:27:09;99432.47;;;4.84;79.25
18697;BME280;22617;43.690;27.956;2023-04-08T23:32:14;99429.78;;;4.81;79.96
18697;BME280;22617;43.690;27.956;2023-04-08T23:37:18;99433.94;;;4.76;79.62
18697;BME280;22617;43.690;27.956;2023-04-08T23:42:22;99425.19;;;4.71;79.37
18697;BME280;22617;43.690;27.956;2023-04-08T23:47:29;99420.84;;;4.68;78.86
18697;BME280;22617;43.690;27.956;2023-04-08T23:52:33;99412.22;;;4.68;78.15
18697;BME280;22617;43.690;27.956;2023-04-08T23:57:40;99424.25;;;4.67;78.10
